Time;durP1;ratioP1;P1;durP2;ratioP2;P2;SDS_P1;SDS_P2;PMS_P1;PMS_P2;Temp;Humidity;BMP_temperature;BMP_pressure;BME280_temperature;BME280_humidity;BME280_pressure;Samples;Min_cycle;Max_cycle;Signal;HPM_P1;HPM_P2
2023/01/17 00:01:12;;;;;;;2.58;0.20;;;5.30;99.90;;;;;;5035248;28;20554;-69
2023/01/17 00:11:58;;;;;;;7.20;0.32;;;5.30;99.90;;;;;;5035014;28;20041;-71
2023/01/17 00:14:26;;;;;;;3.47;0.20;;;5.30;99.90;;;;;;5035064;28;20052;-69
2023/01/17 00:16:52;;;;;;;3.35;0.20;;;5.40;99.90;;;;;;5035052;28;20076;-69
2023/01/17 01:33:58;;;;;;;2.53;0.20;;;4.80;99.90;;;;;;5033731;28;20072;-70
2023/01/17 01:36:24;;;;;;;2.58;0.20;;;4.70;99.90;;;;;;5032470;28;20041;-70
2023/01/17 01:38:49;;;;;;;3.53;0.10;;;4.70;99.90;;;;;;5033459;28;20529;-70
2023/01/17 01:41:15;;;;;;;0.63;0.00;;;4.60;99.90;;;;;;5032837;28;20399;-70
2023/01/17 01:43:43;;;;;;;0.50;0.00;;;4.60;99.90;;;;;;5033933;28;20115;-70
2023/01/17 01:46:23;;;;;;;0.45;0.00;;;4.60;99.90;;;;;;5033668;28;20500;-70
2023/01/17 01:49:01;;;;;;;1.77;0.05;;;4.40;99.90;;;;;;5033786;28;20068;-70
2023/01/17 01:51:44;;;;;;;0.63;0.00;;;4.30;99.90;;;;;;5033620;28;20034;-70
2023/01/17 01:54:13;;;;;;;;;;;4.30;99.90;;;;;;5034400;28;20041;-70
2023/01/17 01:56:39;;;;;;;0.75;0.00;;;4.30;99.90;;;;;;5033401;28;19908;-70
2023/01/17 01:59:08;;;;;;;1.90;0.00;;;4.40;99.90;;;;;;5033294;28;20041;-70
2023/01/17 02:01:34;;;;;;;0.45;0.00;;;4.40;99.90;;;;;;5033285;28;20029;-70
2023/01/17 02:04:01;;;;;;;1.45;0.20;;;4.40;99.90;;;;;;5033568;28;20048;-70
2023/01/17 02:06:34;;;;;;;0.57;0.10;;;4.40;99.90;;;;;;5033676;28;20029;-70
2023/01/17 02:09:07;;;;;;;1.83;0.10;;;4.40;99.90;;;;;;5033257;28;20159;-69
2023/01/17 02:11:35;;;;;;;0.30;0.05;;;4.40;99.90;;;;;;5035961;28;20021;-70
2023/01/17 02:14:00;;;;;;;1.60;0.10;;;4.40;99.90;;;;;;5032785;28;20446;-70
2023/01/17 02:16:44;;;;;;;0.60;0.10;;;4.40;99.90;;;;;;5033601;28;20060;-70
2023/01/17 02:19:19;;;;;;;1.27;0.10;;;4.30;99.90;;;;;;5032784;28;20473;-70
2023/01/17 02:22:12;;;;;;;1.25;0.10;;;4.30;99.90;;;;;;5032615;28;20076;-70
2023/01/17 02:25:13;;;;;;;0.63;0.10;;;4.30;99.90;;;;;;5033094;28;20052;-70
2023/01/17 02:28:14;;;;;;;1.65;0.10;;;4.20;99.90;;;;;;5032532;28;20064;-70
2023/01/17 02:30:49;;;;;;;1.35;0.10;;;4.10;99.90;;;;;;5017266;28;20029;-70
2023/01/17 02:33:38;;;;;;;1.80;0.10;;;4.10;99.90;;;;;;5032004;28;20100;-70
2023/01/17 02:36:21;;;;;;;2.03;0.20;;;4.10;99.90;;;;;;5032671;28;20021;-70
2023/01/17 02:38:58;;;;;;;2.17;0.20;;;4.10;99.90;;;;;;5032224;28;20083;-67
2023/01/17 02:41:31;;;;;;;2.95;0.20;;;4.00;99.90;;;;;;5033068;28;20091;-70
2023/01/17 02:43:57;;;;;;;2.67;0.10;;;4.00;99.90;;;;;;5033246;28;20469;-70
2023/01/17 02:46:23;;;;;;;3.13;0.32;;;3.90;99.90;;;;;;5033040;28;20033;-70
2023/01/17 02:48:50;;;;;;;1.50;0.20;;;3.90;99.90;;;;;;5032546;28;20414;-70
2023/01/17 02:51:58;;;;;;;1.15;0.20;;;3.80;99.90;;;;;;5031341;28;20533;-70
2023/01/17 02:54:24;;;;;;;1.27;0.20;;;3.80;99.90;;;;;;5030630;28;20139;-70
2023/01/17 02:57:09;;;;;;;3.20;0.20;;;3.80;99.90;;;;;;5031137;28;20064;-70
2023/01/17 02:59:54;;;;;;;2.50;0.20;;;3.80;99.90;;;;;;5032806;28;20033;-70
2023/01/17 03:02:52;;;;;;;1.10;0.10;;;3.80;99.90;;;;;;5031003;28;20026;-70
2023/01/17 03:05:35;;;;;;;1.38;0.10;;;3.80;99.90;;;;;;5020391;28;20041;-70
2023/01/17 03:08:02;;;;;;;1.23;0.03;;;3.70;99.90;;;;;;5032593;28;20037;-70
2023/01/17 03:10:30;;;;;;;2.30;0.15;;;3.80;99.90;;;;;;5032472;28;20459;-70
2023/01/17 03:12:57;;;;;;;0.40;0.10;;;3.70;99.90;;;;;;5032152;28;20092;-70
2023/01/17 03:15:23;;;;;;;4.82;0.10;;;3.70;99.90;;;;;;5031099;28;20030;-70
2023/01/17 03:17:51;;;;;;;0.60;0.10;;;3.70;99.90;;;;;;5032712;28;20061;-70
2023/01/17 03:20:17;;;;;;;1.58;0.10;;;3.70;99.90;;;;;;5031727;28;20101;-70
2023/01/17 03:22:42;;;;;;;2.03;0.10;;;3.70;99.90;;;;;;5032532;28;20041;-70
2023/01/17 03:25:08;;;;;;;1.67;0.15;;;3.60;99.90;;;;;;5031345;28;20049;-70
2023/01/17 03:27:34;;;;;;;2.15;0.20;;;3.70;99.90;;;;;;5032528;28;20061;-70
2023/01/17 03:30:00;;;;;;;1.40;0.10;;;3.70;99.90;;;;;;5014651;28;20518;-70
2023/01/17 03:32:26;;;;;;;4.22;0.10;;;3.80;99.90;;;;;;5032188;28;20056;-70
2023/01/17 03:34:52;;;;;;;1.98;0.10;;;3.80;99.90;;;;;;5032411;28;20466;-70
2023/01/17 03:37:18;;;;;;;4.07;0.20;;;3.90;99.90;;;;;;5032005;28;20068;-70
2023/01/17 03:39:43;;;;;;;2.85;0.20;;;3.90;99.90;;;;;;5032301;28;20502;-69
2023/01/17 03:42:10;;;;;;;1.33;0.30;;;3.90;99.90;;;;;;5032280;28;20083;-70
2023/01/17 03:44:36;;;;;;;2.83;0.70;;;3.80;99.90;;;;;;5034465;28;20098;-70
2023/01/17 03:47:02;;;;;;;2.65;0.70;;;3.80;99.90;;;;;;5039354;28;20026;-70
2023/01/17 03:49:28;;;;;;;1.83;0.38;;;3.80;99.90;;;;;;5034959;28;20034;-70
2023/01/17 03:51:53;;;;;;;4.35;0.77;;;3.90;99.90;;;;;;5035814;28;20419;-70
2023/01/17 03:54:19;;;;;;;1.73;0.50;;;3.90;99.90;;;;;;5035741;28;20037;-70
2023/01/17 03:56:45;;;;;;;3.08;0.30;;;4.00;99.90;;;;;;5034395;28;20060;-70
2023/01/17 03:59:10;;;;;;;3.50;0.63;;;3.90;99.90;;;;;;5035541;28;20037;-70
2023/01/17 04:01:36;;;;;;;2.08;0.30;;;3.90;99.90;;;;;;5035430;28;20355;-70
2023/01/17 04:04:01;;;;;;;2.67;0.40;;;3.90;99.90;;;;;;5035625;28;20091;-70
2023/01/17 04:06:27;;;;;;;2.78;0.30;;;3.90;99.90;;;;;;5035377;28;20036;-70
2023/01/17 04:08:53;;;;;;;7.30;0.52;;;3.90;99.90;;;;;;5035483;28;20041;-70
2023/01/17 04:11:19;;;;;;;4.20;0.50;;;3.90;99.90;;;;;;5035621;28;20117;-70
2023/01/17 04:13:44;;;;;;;2.15;0.10;;;4.00;99.90;;;;;;5034129;28;20467;-70
2023/01/17 04:16:16;;;;;;;1.73;0.20;;;3.90;99.90;;;;;;5035283;28;20045;-70
2023/01/17 04:18:42;;;;;;;3.63;0.22;;;3.90;99.90;;;;;;5035079;28;20034;-70
2023/01/17 04:21:07;;;;;;;5.20;0.20;;;3.90;99.90;;;;;;5034395;28;20034;-70
2023/01/17 04:23:33;;;;;;;3.47;0.20;;;3.80;99.90;;;;;;5035312;28;20029;-70
2023/01/17 04:25:59;;;;;;;2.30;0.10;;;3.80;99.90;;;;;;5034787;28;20482;-70
2023/01/17 04:28:25;;;;;;;3.60;0.10;;;3.90;99.90;;;;;;5035001;28;20072;-70
2023/01/17 04:30:51;;;;;;;7.18;0.40;;;3.80;99.90;;;;;;5034812;28;20057;-71
2023/01/17 04:33:17;;;;;;;3.90;0.10;;;3.80;99.90;;;;;;5035158;28;20028;-70
2023/01/17 04:35:43;;;;;;;5.70;0.20;;;3.80;99.90;;;;;;5034770;28;20029;-69
2023/01/17 04:38:08;;;;;;;4.30;0.10;;;3.80;99.90;;;;;;5035154;28;20102;-70
2023/01/17 04:40:34;;;;;;;3.88;0.30;;;3.80;99.90;;;;;;5033516;28;20465;-70
2023/01/17 04:42:59;;;;;;;3.83;0.30;;;3.90;99.90;;;;;;5034792;28;20504;-70
2023/01/17 04:45:25;;;;;;;4.57;0.30;;;3.90;99.90;;;;;;5034716;28;20034;-70
2023/01/17 04:47:51;;;;;;;5.10;0.45;;;3.90;99.90;;;;;;5034605;28;20037;-70
2023/01/17 04:50:17;;;;;;;4.32;1.02;;;3.90;99.90;;;;;;5034544;28;20053;-70
2023/01/17 04:52:43;;;;;;;3.75;0.70;;;3.80;99.90;;;;;;5034545;28;20060;-70
2023/01/17 04:55:08;;;;;;;2.85;0.50;;;3.80;99.90;;;;;;5034757;28;20163;-70
2023/01/17 04:57:34;;;;;;;5.18;0.90;;;3.80;99.90;;;;;;5032601;28;20112;-70
2023/01/17 05:00:00;;;;;;;4.90;0.70;;;3.70;99.90;;;;;;5034545;28;20022;-71
2023/01/17 05:02:26;;;;;;;3.38;0.52;;;3.70;99.90;;;;;;5034231;28;20040;-70
2023/01/17 05:04:51;;;;;;;5.80;1.13;;;3.60;99.90;;;;;;5034781;28;20036;-70
2023/01/17 05:07:17;;;;;;;3.83;0.77;;;3.60;99.90;;;;;;5032750;28;20037;-70
2023/01/17 05:09:43;;;;;;;4.82;0.80;;;3.50;99.90;;;;;;5034423;28;20352;-70
2023/01/17 05:12:08;;;;;;;2.25;0.40;;;3.50;99.90;;;;;;5016444;28;20523;-71
2023/01/17 05:14:34;;;;;;;6.60;0.70;;;3.50;99.90;;;;;;5034304;28;20441;-70
2023/01/17 05:17:01;;;;;;;6.10;0.93;;;3.50;99.90;;;;;;5035191;28;20033;-69
2023/01/17 05:19:27;;;;;;;3.38;0.80;;;3.50;99.90;;;;;;5035667;28;20041;-70
2023/01/17 05:21:53;;;;;;;7.82;0.90;;;3.50;99.90;;;;;;5035054;28;20037;-70
2023/01/17 05:24:19;;;;;;;9.05;2.08;;;3.50;99.90;;;;;;5035196;28;20117;-70
2023/01/17 05:26:53;;;;;;;3.13;0.50;;;3.50;99.90;;;;;;5033934;28;20056;-69
2023/01/17 05:29:19;;;;;;;5.72;0.60;;;3.60;99.90;;;;;;5033716;28;20029;-70
2023/01/17 05:31:45;;;;;;;3.20;0.55;;;3.60;99.90;;;;;;5033705;28;20033;-70
2023/01/17 05:34:11;;;;;;;5.95;0.73;;;3.60;99.90;;;;;;5033602;28;20026;-70
2023/01/17 05:36:37;;;;;;;4.32;0.60;;;3.60;99.90;;;;;;5032211;28;20045;-70
2023/01/17 05:39:02;;;;;;;5.53;0.60;;;3.60;99.90;;;;;;5033205;28;20140;-70
2023/01/17 05:41:28;;;;;;;3.67;0.70;;;3.60;99.90;;;;;;5032729;28;20503;-70
2023/01/17 05:43:53;;;;;;;4.75;0.88;;;3.60;99.90;;;;;;5033658;28;20393;-70
2023/01/17 05:46:19;;;;;;;4.30;1.00;;;3.60;99.90;;;;;;5033608;28;20032;-70
2023/01/17 05:48:45;;;;;;;3.33;1.00;;;3.60;99.90;;;;;;5033297;28;20044;-70
2023/01/17 05:51:10;;;;;;;6.60;1.30;;;3.70;99.90;;;;;;5033527;28;20036;-70
2023/01/17 05:53:36;;;;;;;5.28;1.35;;;3.60;99.90;;;;;;5033147;28;20036;-70
2023/01/17 05:56:01;;;;;;;5.13;1.30;;;3.60;99.90;;;;;;5033325;28;20033;-71
2023/01/17 05:58:27;;;;;;;5.40;1.17;;;3.60;99.90;;;;;;5031943;28;20034;-70
2023/01/17 06:00:54;;;;;;;6.13;1.00;;;3.70;99.90;;;;;;5033172;28;20509;-71
2023/01/17 06:03:20;;;;;;;8.13;0.90;;;3.70;99.90;;;;;;5032971;28;20056;-71
2023/01/17 06:05:46;;;;;;;2.10;0.77;;;3.70;99.90;;;;;;5033117;28;20065;-71
2023/01/17 06:08:12;;;;;;;6.65;1.10;;;3.80;99.90;;;;;;5032120;28;20061;-71
2023/01/17 06:10:38;;;;;;;2.60;0.82;;;3.80;99.90;;;;;;5033073;28;20029;-72
2023/01/17 06:13:13;;;;;;;4.15;0.70;;;3.90;99.90;;;;;;5032734;28;20034;-70
2023/01/17 06:15:38;;;;;;;4.40;0.70;;;3.90;99.90;;;;;;5032695;28;20029;-71
2023/01/17 06:18:12;;;;;;;6.57;1.10;;;4.00;99.90;;;;;;5031711;28;20386;-71
2023/01/17 06:20:39;;;;;;;5.80;0.98;;;4.10;99.90;;;;;;5033027;28;20032;-71
2023/01/17 06:23:06;;;;;;;6.40;1.10;;;4.10;99.90;;;;;;5032374;28;20037;-71
2023/01/17 06:25:42;;;;;;;3.67;0.80;;;4.10;99.90;;;;;;5032818;28;20021;-71
2023/01/17 06:28:09;;;;;;;4.20;0.45;;;4.10;99.90;;;;;;5033042;28;20090;-71
2023/01/17 06:30:35;;;;;;;3.53;0.40;;;4.10;99.90;;;;;;5032854;28;20500;-71
2023/01/17 06:33:01;;;;;;;7.25;0.73;;;4.20;99.90;;;;;;5032671;28;20021;-71
2023/01/17 06:35:27;;;;;;;8.48;1.05;;;4.10;99.90;;;;;;5033780;28;20053;-70
2023/01/17 06:37:54;;;;;;;6.05;0.57;;;4.10;99.90;;;;;;5031788;28;20037;-71
2023/01/17 06:40:27;;;;;;;5.93;0.85;;;4.10;99.90;;;;;;5032600;28;20030;-71
2023/01/17 06:42:53;;;;;;;;;;;4.10;99.90;;;;;;5031798;28;20045;-71
2023/01/17 06:45:19;;;;;;;4.68;1.15;;;4.20;99.90;;;;;;5033105;28;19916;-71
2023/01/17 06:47:45;;;;;;;7.18;1.30;;;4.20;99.90;;;;;;5032502;28;20026;-71
2023/01/17 06:50:12;;;;;;;10.77;2.08;;;4.20;99.90;;;;;;5031144;28;20488;-71
2023/01/17 06:52:39;;;;;;;8.98;2.30;;;4.30;99.90;;;;;;5032522;28;20029;-71
2023/01/17 06:55:06;;;;;;;5.53;1.40;;;4.20;99.90;;;;;;5030997;28;20493;-72
2023/01/17 06:57:32;;;;;;;6.57;1.25;;;4.20;99.90;;;;;;5034124;28;20037;-71
2023/01/17 06:59:57;;;;;;;8.27;1.70;;;4.20;99.90;;;;;;5034491;28;20116;-71
2023/01/17 07:02:23;;;;;;;6.47;2.30;;;4.20;99.90;;;;;;5035795;28;20422;-72
2023/01/17 07:04:49;;;;;;;7.68;3.00;;;4.20;99.90;;;;;;5032814;28;20109;-72
2023/01/17 07:07:14;;;;;;;6.45;1.92;;;4.30;99.90;;;;;;5031513;28;20033;-71
2023/01/17 07:09:40;;;;;;;7.55;1.20;;;4.30;99.90;;;;;;5032273;28;20133;-71
2023/01/17 07:12:06;;;;;;;5.47;1.58;;;4.30;99.90;;;;;;5032366;28;20200;-71
2023/01/17 07:14:32;;;;;;;4.07;0.95;;;4.40;99.90;;;;;;5031047;28;20037;-71
2023/01/17 07:16:57;;;;;;;5.80;0.82;;;4.50;99.90;;;;;;5032241;28;20484;-72
2023/01/17 07:19:23;;;;;;;4.95;0.75;;;4.50;99.90;;;;;;5033111;28;20069;-71
2023/01/17 07:21:55;;;;;;;8.65;0.80;;;4.50;99.90;;;;;;5035922;28;20470;-70
2023/01/17 07:24:21;;;;;;;6.30;1.15;;;4.50;99.90;;;;;;5036072;28;20026;-71
2023/01/17 07:26:50;;;;;;;5.20;1.00;;;4.40;99.90;;;;;;5036057;28;20358;-71
2023/01/17 07:29:16;;;;;;;4.68;1.02;;;4.40;99.90;;;;;;5036304;28;20064;-70
2023/01/17 07:31:42;;;;;;;8.13;1.45;;;4.40;99.90;;;;;;5035600;28;20052;-70
2023/01/17 07:34:08;;;;;;;8.93;1.30;;;4.40;99.90;;;;;;5036187;28;20040;-71
2023/01/17 07:36:34;;;;;;;6.47;1.52;;;4.40;99.90;;;;;;5035639;28;20072;-71
2023/01/17 07:39:00;;;;;;;7.45;1.25;;;4.40;99.90;;;;;;5035851;28;20038;-71
2023/01/17 07:41:26;;;;;;;9.18;1.50;;;4.50;99.90;;;;;;5035980;28;20470;-71
2023/01/17 07:43:51;;;;;;;7.95;1.60;;;4.50;99.90;;;;;;5035574;28;20046;-71
2023/01/17 07:46:17;;;;;;;7.25;1.55;;;4.50;99.90;;;;;;5036074;28;20484;-71
2023/01/17 07:48:43;;;;;;;8.30;1.52;;;4.50;99.90;;;;;;5036014;28;20029;-71
2023/01/17 07:51:09;;;;;;;7.18;1.45;;;4.50;99.90;;;;;;5035018;28;20025;-71
2023/01/17 07:53:35;;;;;;;4.90;1.38;;;4.50;99.90;;;;;;5034942;28;20053;-71
2023/01/17 07:56:06;;;;;;;7.18;1.52;;;4.50;99.90;;;;;;5034074;28;20080;-71
2023/01/17 07:58:32;;;;;;;11.65;1.65;;;4.40;99.90;;;;;;5035707;28;20037;-71
2023/01/17 08:01:10;;;;;;;8.43;2.13;;;4.50;99.90;;;;;;5034447;28;20099;-70
2023/01/17 08:03:38;;;;;;;7.78;2.60;;;4.40;99.90;;;;;;5034417;28;20462;-71
2023/01/17 08:06:06;;;;;;;6.22;2.00;;;4.40;99.90;;;;;;5034028;28;20296;-71
2023/01/17 08:08:32;;;;;;;7.60;3.00;;;4.30;99.90;;;;;;5035145;28;20339;-73
2023/01/17 08:10:57;;;;;;;12.57;3.35;;;4.30;99.90;;;;;;5035115;28;20033;-71
2023/01/17 08:13:23;;;;;;;8.20;2.95;;;4.20;99.90;;;;;;5034109;28;20029;-72
2023/01/17 08:15:50;;;;;;;9.30;3.10;;;4.20;99.90;;;;;;5035597;28;20075;-71
2023/01/17 08:18:17;;;;;;;8.70;2.97;;;4.20;99.90;;;;;;5034960;28;20033;-72
2023/01/17 08:20:45;;;;;;;8.20;3.58;;;4.20;99.90;;;;;;5035287;28;20088;-72
2023/01/17 08:23:11;;;;;;;8.95;3.45;;;4.20;99.90;;;;;;5034420;28;20025;-72
2023/01/17 08:25:38;;;;;;;8.52;3.53;;;4.30;99.90;;;;;;5034706;28;20426;-72
2023/01/17 08:28:04;;;;;;;10.43;3.97;;;4.30;99.90;;;;;;5034924;28;20037;-71
2023/01/17 08:30:29;;;;;;;8.25;3.45;;;4.40;99.90;;;;;;5035856;28;20056;-71
2023/01/17 08:32:55;;;;;;;10.80;4.30;;;4.40;99.90;;;;;;5035390;28;20029;-72
2023/01/17 08:35:21;;;;;;;12.18;4.80;;;4.40;99.90;;;;;;5036088;28;20370;-72
2023/01/17 08:37:47;;;;;;;11.75;4.97;;;4.40;99.90;;;;;;5036232;28;20029;-71
2023/01/17 08:40:16;;;;;;;11.60;4.20;;;4.40;99.90;;;;;;5039713;28;20395;-71
2023/01/17 08:42:43;;;;;;;9.52;4.38;;;4.50;99.90;;;;;;5045682;28;20064;-71
2023/01/17 08:45:10;;;;;;;11.15;5.28;;;4.50;99.90;;;;;;5037007;28;20066;-71
2023/01/17 08:47:36;;;;;;;11.18;5.28;;;4.50;99.90;;;;;;5035019;28;20068;-71
2023/01/17 08:50:05;;;;;;;14.25;5.53;;;4.60;99.90;;;;;;5033553;28;20033;-71
2023/01/17 08:52:32;;;;;;;17.55;6.20;;;4.60;99.90;;;;;;5035128;28;20381;-71
2023/01/17 08:54:57;;;;;;;12.18;6.25;;;4.70;99.90;;;;;;5034868;28;20033;-71
2023/01/17 08:57:23;;;;;;;12.77;6.32;;;4.70;99.90;;;;;;5033340;28;20043;-72
2023/01/17 08:59:49;;;;;;;16.20;6.95;;;4.70;99.90;;;;;;5033662;28;20037;-72
2023/01/17 09:02:17;;;;;;;13.32;7.00;;;4.80;99.90;;;;;;5034215;28;20045;-71
2023/01/17 09:04:47;;;;;;;14.40;7.80;;;4.80;99.90;;;;;;5034452;28;20087;-71
2023/01/17 09:07:13;;;;;;;15.48;7.18;;;4.80;99.90;;;;;;5035788;28;20048;-71
2023/01/17 09:09:39;;;;;;;14.77;7.47;;;4.80;99.90;;;;;;5034649;28;20033;-72
2023/01/17 09:12:05;;;;;;;17.13;8.25;;;4.70;99.90;;;;;;5035057;28;20351;-71
2023/01/17 09:14:31;;;;;;;15.07;7.93;;;4.60;99.90;;;;;;5034275;28;20045;-71
2023/01/17 09:16:57;;;;;;;16.05;8.60;;;4.50;99.90;;;;;;5034466;28;20105;-71
2023/01/17 09:19:23;;;;;;;14.23;8.25;;;4.50;99.90;;;;;;5034659;28;20037;-71
2023/01/17 09:21:49;;;;;;;17.48;8.50;;;4.50;99.90;;;;;;5034167;28;20036;-71
2023/01/17 09:24:14;;;;;;;15.32;8.73;;;4.50;99.90;;;;;;5034209;28;20533;-71
2023/01/17 09:26:40;;;;;;;17.92;8.60;;;4.50;99.90;;;;;;5033212;28;20108;-71
2023/01/17 09:29:06;;;;;;;19.13;10.13;;;4.50;99.90;;;;;;5015959;28;20343;-72
2023/01/17 09:31:31;;;;;;;15.13;9.63;;;4.50;99.90;;;;;;5033912;28;20093;-71
2023/01/17 09:33:57;;;;;;;21.50;10.02;;;4.50;99.90;;;;;;5033891;28;20025;-71
2023/01/17 09:36:27;;;;;;;18.25;9.10;;;4.60;99.90;;;;;;5032495;28;20068;-69
2023/01/17 09:38:57;;;;;;;14.20;8.68;;;4.50;99.90;;;;;;5033714;28;20040;-73
2023/01/17 09:41:43;;;;;;;12.35;7.60;;;4.50;99.90;;;;;;5033767;28;20061;-69
2023/01/17 09:44:15;;;;;;;13.90;8.85;;;4.60;99.90;;;;;;5033656;28;20072;-69
2023/01/17 09:46:45;;;;;;;18.02;9.07;;;4.70;99.90;;;;;;5033507;28;20029;-70
2023/01/17 09:49:36;;;;;;;17.02;8.48;;;4.70;99.90;;;;;;5034076;28;20033;-69
2023/01/17 09:52:03;;;;;;;18.15;8.75;;;4.80;99.90;;;;;;5032160;28;20052;-70
2023/01/17 09:54:36;;;;;;;16.38;9.27;;;4.80;99.90;;;;;;5033742;28;20458;-71
2023/01/17 09:57:14;;;;;;;13.45;8.32;;;4.90;99.90;;;;;;5033434;28;20057;-70
2023/01/17 10:00:13;;;;;;;13.38;8.60;;;4.90;99.90;;;;;;5033702;28;20034;-70
2023/01/17 10:02:53;;;;;;;13.32;8.05;;;5.00;99.90;;;;;;5033144;28;20040;-70
2023/01/17 10:05:27;;;;;;;14.75;7.28;;;5.10;99.90;;;;;;5016457;28;20037;-70
2023/01/17 10:08:08;;;;;;;15.07;7.18;;;5.10;99.90;;;;;;5032868;28;20100;-71
2023/01/17 10:10:41;;;;;;;15.07;7.53;;;5.20;99.90;;;;;;5032878;28;20029;-70
2023/01/17 10:13:39;;;;;;;12.45;8.07;;;5.20;99.90;;;;;;5032279;28;20127;-70
2023/01/17 10:16:13;;;;;;;13.18;7.50;;;5.30;99.90;;;;;;5021214;28;20383;-70
2023/01/17 10:18:42;;;;;;;12.85;7.53;;;5.30;99.90;;;;;;5034314;28;20029;-70
2023/01/17 10:21:41;;;;;;;12.20;7.20;;;5.30;99.90;;;;;;5035618;28;20060;-70
2023/01/17 10:24:28;;;;;;;14.18;6.93;;;5.30;99.90;;;;;;5034217;28;20026;-70
2023/01/17 10:26:57;;;;;;;11.50;6.95;;;5.30;99.90;;;;;;5032072;28;20030;-70
2023/01/17 10:29:27;;;;;;;14.30;6.95;;;5.30;99.90;;;;;;5031931;28;20095;-70
2023/01/17 10:32:00;;;;;;;13.70;5.97;;;5.30;99.90;;;;;;5032480;28;20065;-70
2023/01/17 10:34:36;;;;;;;;;;;5.30;99.90;;;;;;5033211;28;20456;-70
2023/01/17 10:37:15;;;;;;;12.27;6.40;;;5.30;99.90;;;;;;5032822;28;20016;-69
2023/01/17 10:39:48;;;;;;;13.75;6.15;;;5.30;99.90;;;;;;5033392;28;20045;-70
2023/01/17 10:42:35;;;;;;;13.63;6.50;;;5.30;99.90;;;;;;5032752;28;20029;-70
2023/01/17 10:45:12;;;;;;;15.15;6.55;;;5.30;99.90;;;;;;5032386;28;20122;-69
2023/01/17 10:47:40;;;;;;;12.35;5.38;;;5.40;99.90;;;;;;5032634;28;20040;-70
2023/01/17 10:50:10;;;;;;;16.90;6.60;;;5.40;99.90;;;;;;5032266;28;20041;-70
2023/01/17 10:52:55;;;;;;;14.15;6.63;;;5.40;99.90;;;;;;5033233;28;20030;-69
2023/01/17 10:55:41;;;;;;;15.80;6.97;;;5.40;99.90;;;;;;5032319;28;20495;-69
2023/01/17 10:58:14;;;;;;;11.40;6.10;;;5.40;99.90;;;;;;5032581;28;20382;-70
2023/01/17 11:00:53;;;;;;;20.00;6.43;;;5.50;99.90;;;;;;5031573;28;20042;-70
2023/01/17 11:03:23;;;;;;;11.15;5.85;;;5.50;99.90;;;;;;5032702;28;20029;-70
2023/01/17 11:06:13;;;;;;;10.82;5.57;;;5.50;99.90;;;;;;5030704;28;20493;-70
2023/01/17 11:08:56;;;;;;;11.32;4.85;;;5.50;99.90;;;;;;5032303;28;20457;-70
2023/01/17 11:11:31;;;;;;;16.17;5.28;;;5.50;99.90;;;;;;5032415;28;20510;-69
2023/01/17 11:14:00;;;;;;;10.65;5.50;;;5.50;99.90;;;;;;5032380;28;20112;-69
2023/01/17 11:16:30;;;;;;;13.10;5.55;;;5.50;99.90;;;;;;5032383;28;20022;-67
2023/01/17 11:19:24;;;;;;;7.63;4.60;;;5.50;99.90;;;;;;5031141;28;20084;-68
2023/01/17 11:21:57;;;;;;;12.85;4.93;;;5.50;99.90;;;;;;5032482;28;20030;-68
2023/01/17 11:24:52;;;;;;;11.85;4.63;;;5.60;99.90;;;;;;5032573;28;20084;-68
2023/01/17 11:27:27;;;;;;;9.50;4.20;;;5.60;99.90;;;;;;5032636;28;20072;-68
2023/01/17 11:30:19;;;;;;;10.00;4.90;;;5.60;99.90;;;;;;5030788;28;20424;-68
2023/01/17 11:32:51;;;;;;;15.15;5.60;;;5.60;99.90;;;;;;5032161;28;20024;-68
2023/01/17 11:35:43;;;;;;;14.23;4.97;;;5.70;99.90;;;;;;5032090;28;20037;-68
2023/01/17 11:38:20;;;;;;;8.63;4.45;;;5.70;99.90;;;;;;5032061;28;20060;-68
2023/01/17 11:40:48;;;;;;;17.38;6.13;;;5.80;99.90;;;;;;5031953;28;20483;-69
2023/01/17 11:43:22;;;;;;;9.68;4.10;;;5.80;99.90;;;;;;5032171;28;20088;-68
2023/01/17 11:46:21;;;;;;;10.85;4.18;;;5.90;99.90;;;;;;5032282;28;20022;-69
2023/01/17 11:48:52;;;;;;;8.38;4.15;;;5.90;99.90;;;;;;5031806;28;20112;-69
2023/01/17 11:51:40;;;;;;;6.93;3.42;;;5.90;99.90;;;;;;5031926;28;20021;-69
2023/01/17 11:54:23;;;;;;;10.35;4.10;;;6.10;99.90;;;;;;5031878;28;20032;-69
2023/01/17 11:56:55;;;;;;;;;;;6.20;99.90;;;;;;5031504;28;20030;-69
2023/01/17 11:59:20;;;;;;;8.05;3.72;;;6.20;99.90;;;;;;5032135;28;20012;-70
2023/01/17 12:02:11;;;;;;;9.70;3.60;;;6.10;99.90;;;;;;5032475;28;20395;-70
2023/01/17 12:04:45;;;;;;;7.93;3.67;;;6.10;99.90;;;;;;5034731;28;20040;-69
2023/01/17 12:07:14;;;;;;;8.55;3.75;;;6.20;99.90;;;;;;5035067;28;20108;-69
2023/01/17 12:10:07;;;;;;;7.22;3.58;;;6.20;99.90;;;;;;5035283;28;20482;-69
2023/01/17 12:15:50;;;;;;;6.82;3.17;;;6.20;99.90;;;;;;5035104;28;20053;-69
2023/01/17 12:18:45;;;;;;;7.50;3.25;;;6.30;99.90;;;;;;5035043;28;20166;-69
2023/01/17 12:21:15;;;;;;;7.57;2.67;;;6.30;99.90;;;;;;5035471;28;20029;-69
2023/01/17 12:23:49;;;;;;;5.95;2.78;;;6.30;99.90;;;;;;5034984;28;20053;-69
2023/01/17 12:26:28;;;;;;;8.52;2.70;;;6.40;99.90;;;;;;5035116;28;20036;-69
2023/01/17 12:29:13;;;;;;;6.90;2.55;;;6.50;99.90;;;;;;5034952;28;20087;-69
2023/01/17 12:32:20;;;;;;;7.45;2.58;;;7.10;99.90;;;;;;5034901;28;20033;-68
2023/01/17 12:35:05;;;;;;;8.10;2.60;;;7.20;99.90;;;;;;5032952;28;20068;-68
2023/01/17 12:37:42;;;;;;;6.78;2.70;;;7.20;99.90;;;;;;5035073;28;20026;-68
2023/01/17 12:40:14;;;;;;;5.75;2.40;;;7.20;99.70;;;;;;5034906;28;20039;-68
2023/01/17 12:42:48;;;;;;;5.38;2.80;;;7.30;99.30;;;;;;5033132;28;20434;-69
2023/01/17 12:45:46;;;;;;;7.25;2.35;;;7.20;97.50;;;;;;5034477;28;20454;-69
2023/01/17 12:48:19;;;;;;;7.18;2.30;;;7.10;97.90;;;;;;5032520;28;20500;-69
2023/01/17 12:50:56;;;;;;;;;;;7.20;98.10;;;;;;5035310;28;20021;-68
2023/01/17 12:53:50;;;;;;;4.90;2.30;;;7.20;97.90;;;;;;5034735;28;19905;-69
2023/01/17 12:56:23;;;;;;;10.23;2.80;;;7.30;97.40;;;;;;5034926;28;20049;-68
2023/01/17 12:58:55;;;;;;;8.05;2.25;;;7.30;97.50;;;;;;5034364;28;20060;-69
2023/01/17 13:01:41;;;;;;;8.20;2.05;;;7.40;96.30;;;;;;5034285;28;20025;-69
2023/01/17 13:04:24;;;;;;;5.97;2.40;;;7.50;96.70;;;;;;5033350;28;20489;-69
2023/01/17 13:06:59;;;;;;;4.68;1.90;;;7.60;96.10;;;;;;5034162;28;20022;-69
2023/01/17 13:09:37;;;;;;;2.90;1.83;;;7.70;96.10;;;;;;5034219;28;20175;-69
2023/01/17 13:12:16;;;;;;;5.75;2.30;;;7.90;95.90;;;;;;5034110;28;20112;-69
2023/01/17 13:14:45;;;;;;;8.57;2.03;;;7.90;95.60;;;;;;5034095;28;20029;-69
2023/01/17 13:17:35;;;;;;;6.00;1.85;;;8.00;95.30;;;;;;5033456;28;20026;-69
2023/01/17 13:20:25;;;;;;;5.35;2.03;;;8.10;94.20;;;;;;5033353;28;20034;-68
2023/01/17 13:22:52;;;;;;;6.20;1.70;;;8.10;93.80;;;;;;5032976;28;20041;-69
2023/01/17 13:25:48;;;;;;;4.60;1.80;;;8.10;93.10;;;;;;5033075;28;20030;-69
2023/01/17 13:28:35;;;;;;;6.65;2.03;;;8.10;93.00;;;;;;5033626;28;20029;-69
2023/01/17 13:31:12;;;;;;;5.82;1.90;;;8.10;93.00;;;;;;5034008;28;20036;-68
2023/01/17 13:33:53;;;;;;;6.70;1.60;;;8.10;92.60;;;;;;5034001;28;20108;-69
2023/01/17 13:36:33;;;;;;;7.55;2.75;;;8.20;92.30;;;;;;5033851;28;20041;-68
2023/01/17 13:39:25;;;;;;;5.13;1.50;;;8.30;92.10;;;;;;5033464;28;20033;-69
2023/01/17 13:42:29;;;;;;;2.38;1.25;;;8.30;91.20;;;;;;5034670;28;20036;-69
2023/01/17 13:44:56;;;;;;;2.67;1.20;;;8.30;90.90;;;;;;5035315;28;20049;-69
2023/01/17 13:47:23;;;;;;;4.45;1.35;;;8.40;90.40;;;;;;5031566;28;20033;-68
2023/01/17 13:49:55;;;;;;;6.50;1.58;;;8.30;89.30;;;;;;5033690;28;20041;-68
2023/01/17 13:52:22;;;;;;;3.97;1.45;;;8.40;89.90;;;;;;5032430;28;20029;-68
2023/01/17 13:54:56;;;;;;;4.05;1.02;;;8.50;90.00;;;;;;5033502;28;20032;-68
2023/01/17 13:57:34;;;;;;;5.32;1.42;;;8.50;88.50;;;;;;5033326;28;20474;-68
2023/01/17 14:00:15;;;;;;;3.92;1.00;;;8.60;88.00;;;;;;5033252;28;20216;-68
2023/01/17 14:02:41;;;;;;;3.03;0.80;;;8.60;88.20;;;;;;5032975;28;20061;-68
2023/01/17 14:05:13;;;;;;;3.90;1.42;;;8.80;88.20;;;;;;5032000;28;20041;-68
2023/01/17 14:07:43;;;;;;;3.67;1.10;;;8.80;84.60;;;;;;5033194;28;20104;-68
2023/01/17 14:10:23;;;;;;;3.42;0.85;;;8.60;82.80;;;;;;5031731;28;20037;-68
2023/01/17 14:12:49;;;;;;;5.00;0.90;;;8.50;82.90;;;;;;5033179;28;20029;-68
2023/01/17 14:15:27;;;;;;;2.83;0.60;;;8.40;82.90;;;;;;5033013;28;20033;-69
2023/01/17 14:18:30;;;;;;;3.75;0.80;;;8.40;82.10;;;;;;5031836;28;20108;-70
2023/01/17 14:21:07;;;;;;;;;;;8.40;82.50;;;;;;5033104;28;20170;-69
2023/01/17 14:23:45;;;;;;;4.20;0.85;;;8.50;81.50;;;;;;5033354;28;19967;-68
2023/01/17 14:26:35;;;;;;;3.92;0.75;;;8.60;81.30;;;;;;5033102;28;20074;-70
2023/01/17 14:29:39;;;;;;;1.73;0.65;;;8.60;81.00;;;;;;5031803;28;20053;-70
2023/01/17 14:32:08;;;;;;;4.15;0.80;;;8.60;81.10;;;;;;5032774;28;20037;-68
2023/01/17 14:34:34;;;;;;;5.75;0.55;;;8.60;80.10;;;;;;5031506;28;20034;-68
2023/01/17 14:37:13;;;;;;;4.20;0.63;;;8.60;79.10;;;;;;5032954;28;20171;-68
2023/01/17 14:39:47;;;;;;;3.33;0.70;;;8.50;78.40;;;;;;5032777;28;20069;-68
2023/01/17 14:42:19;;;;;;;2.88;0.95;;;8.50;75.60;;;;;;5032696;28;20034;-68
2023/01/17 14:44:47;;;;;;;4.07;0.70;;;8.30;77.10;;;;;;5032408;28;20200;-68
2023/01/17 14:47:15;;;;;;;2.97;0.63;;;8.30;78.10;;;;;;5033240;28;20113;-69